DAL2254 KRDU-KTPA
Flight info
| Callsign | DAL2254 |
|---|---|
| Flight time | 1h 26m |
| Altitude | 36000 |
| Route | HOOKZ5 DAWTS MRPIT Q409 PUPYY BAAMF DADES2 |
| Aircraft | A321/M-SDE3FGHIRWY/LB1 |
Departure
| Time | 2026-05-07 01:26 |
|---|---|
| Airport | Raleigh-Durham International Airport (KRDU) |
Arrival
| Time | 2026-05-07 02:53 |
|---|---|
| Airport | Tampa International Airport (KTPA) |
| Time | Latitude | Longitude | Altitude | Speed | Heading |
|---|---|---|---|---|---|
| 2026-05-07 00:49 | 35.87529 | -78.79551 | 392 ft | 0 kts | 316° |
| 2026-05-07 01:02 | 35.87515 | -78.79529 | 392 ft | 4 kts | 283° |
| 2026-05-07 01:02 | 35.87516 | -78.79498 | 392 ft | 4 kts | 245° |
| 2026-05-07 01:02 | 35.87528 | -78.79476 | 392 ft | 2 kts | 225° |
| 2026-05-07 01:03 | 35.87512 | -78.79496 | 392 ft | 2 kts | 225° |
| 2026-05-07 01:03 | 35.87511 | -78.79497 | 392 ft | 0 kts | 225° |
| 2026-05-07 01:05 | 35.87506 | -78.79503 | 392 ft | 5 kts | 225° |
| 2026-05-07 01:06 | 35.87473 | -78.79542 | 392 ft | 7 kts | 223° |
| 2026-05-07 01:06 | 35.87447 | -78.79572 | 392 ft | 4 kts | 223° |
| 2026-05-07 01:06 | 35.87426 | -78.79597 | 392 ft | 6 kts | 226° |
| 2026-05-07 01:06 | 35.87405 | -78.79632 | 392 ft | 4 kts | 247° |
| 2026-05-07 01:07 | 35.87401 | -78.79662 | 392 ft | 4 kts | 262° |
| 2026-05-07 01:07 | 35.87396 | -78.79712 | 392 ft | 7 kts | 267° |
| 2026-05-07 01:07 | 35.87416 | -78.79746 | 392 ft | 0 kts | 314° |
| 2026-05-07 01:09 | 35.87420 | -78.79751 | 392 ft | 3 kts | 315° |
| 2026-05-07 01:09 | 35.87445 | -78.79780 | 392 ft | 5 kts | 317° |
| 2026-05-07 01:09 | 35.87480 | -78.79818 | 391 ft | 11 kts | 324° |
| 2026-05-07 01:10 | 35.87537 | -78.79797 | 391 ft | 12 kts | 47° |
| 2026-05-07 01:10 | 35.87605 | -78.79707 | 391 ft | 15 kts | 45° |
| 2026-05-07 01:10 | 35.87674 | -78.79621 | 392 ft | 14 kts | 45° |
| 2026-05-07 01:10 | 35.87739 | -78.79540 | 392 ft | 13 kts | 45° |
| 2026-05-07 01:11 | 35.87800 | -78.79465 | 392 ft | 12 kts | 44° |
| 2026-05-07 01:11 | 35.87857 | -78.79395 | 392 ft | 11 kts | 45° |
| 2026-05-07 01:11 | 35.87909 | -78.79331 | 392 ft | 10 kts | 45° |
| 2026-05-07 01:11 | 35.87957 | -78.79271 | 392 ft | 9 kts | 45° |
| 2026-05-07 01:12 | 35.88002 | -78.79216 | 392 ft | 9 kts | 45° |
| 2026-05-07 01:12 | 35.88008 | -78.79209 | 392 ft | 0 kts | 45° |
| 2026-05-07 01:13 | 35.88016 | -78.79200 | 392 ft | 5 kts | 45° |
| 2026-05-07 01:13 | 35.88043 | -78.79166 | 392 ft | 5 kts | 45° |
| 2026-05-07 01:13 | 35.88068 | -78.79135 | 392 ft | 5 kts | 45° |
| 2026-05-07 01:13 | 35.88120 | -78.79070 | 392 ft | 16 kts | 46° |
| 2026-05-07 01:14 | 35.88101 | -78.78955 | 393 ft | 15 kts | 139° |
| 2026-05-07 01:14 | 35.88022 | -78.78863 | 410 ft | 15 kts | 136° |
| 2026-05-07 01:14 | 35.87943 | -78.78782 | 411 ft | 12 kts | 152° |
| 2026-05-07 01:14 | 35.87885 | -78.78759 | 418 ft | 6 kts | 167° |
| 2026-05-07 01:15 | 35.87829 | -78.78730 | 427 ft | 17 kts | 148° |
| 2026-05-07 01:15 | 35.87748 | -78.78637 | 427 ft | 10 kts | 136° |
| 2026-05-07 01:15 | 35.87708 | -78.78591 | 431 ft | 6 kts | 136° |
| 2026-05-07 01:15 | 35.87663 | -78.78536 | 420 ft | 11 kts | 135° |
| 2026-05-07 01:16 | 35.87655 | -78.78456 | 435 ft | 12 kts | 56° |
| 2026-05-07 01:16 | 35.87726 | -78.78367 | 424 ft | 15 kts | 46° |
| 2026-05-07 01:16 | 35.87795 | -78.78280 | 428 ft | 14 kts | 45° |
| 2026-05-07 01:16 | 35.87860 | -78.78199 | 432 ft | 13 kts | 44° |
| 2026-05-07 01:17 | 35.87924 | -78.78125 | 435 ft | 11 kts | 43° |
| 2026-05-07 01:17 | 35.87933 | -78.78115 | 424 ft | 0 kts | 43° |
| 2026-05-07 01:17 | 35.87939 | -78.78108 | 427 ft | 5 kts | 43° |
| 2026-05-07 01:18 | 35.87968 | -78.78072 | 421 ft | 5 kts | 48° |
| 2026-05-07 01:18 | 35.87976 | -78.78038 | 423 ft | 3 kts | 94° |
| 2026-05-07 01:18 | 35.87972 | -78.78025 | 436 ft | 0 kts | 112° |
| 2026-05-07 01:24 | 35.87956 | -78.78002 | 428 ft | 10 kts | 132° |
| 2026-05-07 01:24 | 35.87903 | -78.77964 | 424 ft | 8 kts | 183° |
| 2026-05-07 01:25 | 35.87882 | -78.77980 | 429 ft | 0 kts | 220° |
| 2026-05-07 01:25 | 35.87879 | -78.77983 | 431 ft | 4 kts | 221° |
| 2026-05-07 01:25 | 35.87803 | -78.78077 | 427 ft | 41 kts | 226° |
| 2026-05-07 01:25 | 35.87428 | -78.78542 | 434 ft | 108 kts | 225° |
| 2026-05-07 01:26 | 35.86767 | -78.79359 | 431 ft | 158 kts | 224° |
| 2026-05-07 01:26 | 35.85977 | -78.80345 | 999 ft | 155 kts | 224° |
| 2026-05-07 01:26 | 35.85134 | -78.81104 | 1708 ft | 149 kts | 207° |
| 2026-05-07 01:26 | 35.84153 | -78.81551 | 2253 ft | 155 kts | 202° |
| 2026-05-07 01:27 | 35.83064 | -78.81983 | 2497 ft | 172 kts | 201° |
| 2026-05-07 01:27 | 35.81883 | -78.82435 | 2721 ft | 186 kts | 201° |
| 2026-05-07 01:27 | 35.80571 | -78.82933 | 2848 ft | 208 kts | 201° |
| 2026-05-07 01:27 | 35.79100 | -78.83493 | 3042 ft | 234 kts | 201° |
| 2026-05-07 01:28 | 35.77462 | -78.83961 | 3597 ft | 248 kts | 194° |
| 2026-05-07 01:28 | 35.75730 | -78.84293 | 4366 ft | 254 kts | 194° |
| 2026-05-07 01:28 | 35.73967 | -78.84601 | 5163 ft | 258 kts | 194° |
| 2026-05-07 01:28 | 35.72171 | -78.84904 | 5904 ft | 263 kts | 194° |
| 2026-05-07 01:29 | 35.70333 | -78.85213 | 6605 ft | 270 kts | 194° |
| 2026-05-07 01:29 | 35.68480 | -78.85526 | 7306 ft | 274 kts | 194° |
| 2026-05-07 01:29 | 35.66585 | -78.85850 | 8062 ft | 277 kts | 194° |
| 2026-05-07 01:29 | 35.64663 | -78.86180 | 8823 ft | 280 kts | 195° |
| 2026-05-07 01:30 | 35.62725 | -78.86513 | 9588 ft | 282 kts | 194° |
| 2026-05-07 01:30 | 35.60766 | -78.86854 | 10230 ft | 288 kts | 194° |
| 2026-05-07 01:30 | 35.58703 | -78.87222 | 10402 ft | 311 kts | 194° |
| 2026-05-07 01:30 | 35.56492 | -78.87618 | 10663 ft | 329 kts | 194° |
| 2026-05-07 01:31 | 35.54206 | -78.88020 | 11249 ft | 334 kts | 194° |
| 2026-05-07 01:31 | 35.51889 | -78.88420 | 11899 ft | 338 kts | 194° |
| 2026-05-07 01:31 | 35.49543 | -78.88823 | 12563 ft | 342 kts | 194° |
| 2026-05-07 01:31 | 35.47176 | -78.89227 | 13221 ft | 346 kts | 194° |
| 2026-05-07 01:32 | 35.44812 | -78.89628 | 13852 ft | 349 kts | 194° |
| 2026-05-07 01:32 | 35.42392 | -78.90038 | 14426 ft | 353 kts | 194° |
| 2026-05-07 01:32 | 35.39947 | -78.90449 | 15003 ft | 357 kts | 194° |
| 2026-05-07 01:32 | 35.37469 | -78.90862 | 15579 ft | 360 kts | 194° |
| 2026-05-07 01:33 | 35.34972 | -78.91276 | 16163 ft | 364 kts | 194° |
| 2026-05-07 01:33 | 35.32448 | -78.91695 | 16727 ft | 368 kts | 194° |
| 2026-05-07 01:33 | 35.29895 | -78.92116 | 17291 ft | 372 kts | 194° |
| 2026-05-07 01:33 | 35.27266 | -78.92246 | 17835 ft | 384 kts | 184° |
| 2026-05-07 01:34 | 35.24579 | -78.91855 | 18368 ft | 392 kts | 179° |
| 2026-05-07 01:34 | 35.21860 | -78.91392 | 18804 ft | 397 kts | 179° |
| 2026-05-07 01:34 | 35.20041 | -78.91087 | 19115 ft | 399 kts | 179° |
| 2026-05-07 01:34 | 35.17282 | -78.90627 | 19596 ft | 402 kts | 179° |
| 2026-05-07 01:35 | 35.14503 | -78.90166 | 20061 ft | 405 kts | 179° |
| 2026-05-07 01:35 | 35.11703 | -78.89700 | 20539 ft | 407 kts | 179° |
| 2026-05-07 01:35 | 35.07927 | -78.89072 | 21167 ft | 411 kts | 180° |
| 2026-05-07 01:35 | 35.06043 | -78.88759 | 21480 ft | 413 kts | 180° |
| 2026-05-07 01:36 | 35.03184 | -78.88285 | 21942 ft | 416 kts | 180° |
| 2026-05-07 01:36 | 35.00300 | -78.87884 | 22396 ft | 414 kts | 185° |
| 2026-05-07 01:36 | 34.97440 | -78.87980 | 22812 ft | 409 kts | 194° |
| 2026-05-07 01:36 | 34.94666 | -78.88611 | 23228 ft | 405 kts | 201° |
| 2026-05-07 01:37 | 34.91906 | -78.89399 | 23642 ft | 408 kts | 201° |
| 2026-05-07 01:37 | 34.89134 | -78.90186 | 24012 ft | 411 kts | 200° |
| 2026-05-07 01:37 | 34.86378 | -78.90961 | 24378 ft | 413 kts | 200° |
| 2026-05-07 01:37 | 34.83574 | -78.91745 | 24755 ft | 414 kts | 200° |
| 2026-05-07 01:38 | 34.80759 | -78.92531 | 25125 ft | 416 kts | 200° |
| 2026-05-07 01:38 | 34.77930 | -78.93323 | 25498 ft | 418 kts | 200° |
| 2026-05-07 01:38 | 34.75091 | -78.94119 | 25869 ft | 420 kts | 200° |
| 2026-05-07 01:38 | 34.72230 | -78.94918 | 26210 ft | 422 kts | 199° |
| 2026-05-07 01:39 | 34.69360 | -78.95718 | 26550 ft | 425 kts | 199° |
| 2026-05-07 01:39 | 34.66474 | -78.96523 | 26897 ft | 427 kts | 199° |
| 2026-05-07 01:39 | 34.63570 | -78.97332 | 27246 ft | 429 kts | 199° |
| 2026-05-07 01:39 | 34.60657 | -78.98143 | 27592 ft | 430 kts | 199° |
| 2026-05-07 01:40 | 34.57731 | -78.98958 | 27926 ft | 432 kts | 199° |
| 2026-05-07 01:40 | 34.54828 | -78.99767 | 28261 ft | 434 kts | 199° |
| 2026-05-07 01:40 | 34.51879 | -79.00589 | 28591 ft | 436 kts | 199° |
| 2026-05-07 01:40 | 34.48913 | -79.01413 | 28895 ft | 438 kts | 199° |
| 2026-05-07 01:41 | 34.45953 | -79.02285 | 29185 ft | 437 kts | 203° |
| 2026-05-07 01:41 | 34.43129 | -79.03600 | 29481 ft | 432 kts | 212° |
| 2026-05-07 01:41 | 34.40544 | -79.05418 | 29769 ft | 427 kts | 220° |
| 2026-05-07 01:41 | 34.38119 | -79.07511 | 30070 ft | 428 kts | 220° |
| 2026-05-07 01:42 | 34.35689 | -79.09606 | 30326 ft | 429 kts | 220° |
| 2026-05-07 01:42 | 34.33247 | -79.11702 | 30595 ft | 431 kts | 220° |
| 2026-05-07 01:42 | 34.30795 | -79.13799 | 30858 ft | 432 kts | 220° |
| 2026-05-07 01:42 | 34.28330 | -79.15902 | 31119 ft | 434 kts | 220° |
| 2026-05-07 01:43 | 34.25869 | -79.18008 | 31479 ft | 432 kts | 221° |
| 2026-05-07 01:43 | 34.23477 | -79.20187 | 31841 ft | 429 kts | 224° |
| 2026-05-07 01:43 | 34.21194 | -79.22411 | 32218 ft | 426 kts | 226° |
| 2026-05-07 01:43 | 34.18925 | -79.24703 | 32604 ft | 424 kts | 227° |
| 2026-05-07 01:44 | 34.16673 | -79.27005 | 32990 ft | 423 kts | 227° |
| 2026-05-07 01:44 | 34.14428 | -79.29287 | 33384 ft | 422 kts | 227° |
| 2026-05-07 01:44 | 34.12170 | -79.31552 | 33765 ft | 420 kts | 227° |
| 2026-05-07 01:44 | 34.09907 | -79.33791 | 34122 ft | 419 kts | 227° |
| 2026-05-07 01:45 | 34.07646 | -79.36005 | 34454 ft | 418 kts | 227° |
| 2026-05-07 01:45 | 34.05390 | -79.38207 | 34792 ft | 416 kts | 227° |
| 2026-05-07 01:45 | 34.03175 | -79.40365 | 35128 ft | 414 kts | 228° |
| 2026-05-07 01:45 | 34.00941 | -79.42544 | 35443 ft | 412 kts | 229° |
| 2026-05-07 01:46 | 33.98728 | -79.44704 | 35840 ft | 408 kts | 229° |
| 2026-05-07 01:46 | 33.96528 | -79.46854 | 35973 ft | 408 kts | 230° |
| 2026-05-07 01:46 | 33.94316 | -79.49027 | 36007 ft | 413 kts | 230° |
| 2026-05-07 01:47 | 33.89821 | -79.53446 | 36006 ft | 420 kts | 229° |
| 2026-05-07 01:47 | 33.85264 | -79.57875 | 36002 ft | 422 kts | 229° |
| 2026-05-07 01:48 | 33.80626 | -79.62215 | 36002 ft | 423 kts | 228° |
| 2026-05-07 01:48 | 33.75989 | -79.66493 | 35984 ft | 422 kts | 228° |
| 2026-05-07 01:49 | 33.71340 | -79.70799 | 36001 ft | 422 kts | 228° |
| 2026-05-07 01:49 | 33.66702 | -79.75116 | 36010 ft | 422 kts | 228° |
| 2026-05-07 01:50 | 33.62058 | -79.79430 | 36017 ft | 422 kts | 228° |
| 2026-05-07 01:50 | 33.57417 | -79.83731 | 36031 ft | 421 kts | 228° |
| 2026-05-07 01:51 | 33.52783 | -79.88024 | 35997 ft | 420 kts | 228° |
| 2026-05-07 01:51 | 33.48162 | -79.92315 | 36005 ft | 420 kts | 228° |
| 2026-05-07 01:52 | 33.43525 | -79.96595 | 36004 ft | 421 kts | 228° |
| 2026-05-07 01:52 | 33.38913 | -80.00842 | 36017 ft | 421 kts | 228° |
| 2026-05-07 01:53 | 33.34274 | -80.05114 | 36020 ft | 421 kts | 228° |
| 2026-05-07 01:53 | 33.29632 | -80.09383 | 36023 ft | 421 kts | 228° |
| 2026-05-07 01:54 | 33.24977 | -80.13659 | 35996 ft | 422 kts | 227° |
| 2026-05-07 01:54 | 33.20312 | -80.17936 | 36011 ft | 423 kts | 227° |
| 2026-05-07 01:55 | 33.15643 | -80.22217 | 36014 ft | 423 kts | 227° |
| 2026-05-07 01:55 | 33.10976 | -80.26494 | 36020 ft | 423 kts | 227° |
| 2026-05-07 01:56 | 33.06298 | -80.30768 | 36023 ft | 423 kts | 227° |
| 2026-05-07 01:56 | 33.01661 | -80.35000 | 36030 ft | 423 kts | 227° |
| 2026-05-07 01:57 | 32.96986 | -80.39256 | 36032 ft | 423 kts | 227° |
| 2026-05-07 01:57 | 32.92308 | -80.43509 | 36030 ft | 423 kts | 227° |
| 2026-05-07 01:58 | 32.87631 | -80.47762 | 36026 ft | 423 kts | 227° |
| 2026-05-07 01:58 | 32.82943 | -80.52011 | 36030 ft | 423 kts | 227° |
| 2026-05-07 01:59 | 32.78252 | -80.56257 | 35993 ft | 423 kts | 226° |
| 2026-05-07 01:59 | 32.73588 | -80.60455 | 35996 ft | 425 kts | 225° |
| 2026-05-07 02:00 | 32.68887 | -80.64732 | 36017 ft | 426 kts | 226° |
| 2026-05-07 02:00 | 32.64228 | -80.69083 | 36032 ft | 426 kts | 226° |
| 2026-05-07 02:01 | 32.59575 | -80.73448 | 36049 ft | 426 kts | 226° |
| 2026-05-07 02:01 | 32.54907 | -80.77800 | 36030 ft | 427 kts | 226° |
| 2026-05-07 02:02 | 32.50224 | -80.82147 | 36043 ft | 428 kts | 225° |
| 2026-05-07 02:02 | 32.45520 | -80.86499 | 36036 ft | 429 kts | 225° |
| 2026-05-07 02:03 | 32.43164 | -80.88676 | 36034 ft | 429 kts | 225° |
| 2026-05-07 02:03 | 32.35840 | -80.95435 | 36024 ft | 430 kts | 225° |
| 2026-05-07 02:04 | 32.31125 | -80.99791 | 36031 ft | 430 kts | 225° |
| 2026-05-07 02:04 | 32.26166 | -81.03829 | 36015 ft | 438 kts | 217° |
| 2026-05-07 02:05 | 32.20856 | -81.07384 | 36012 ft | 439 kts | 217° |
| 2026-05-07 02:05 | 32.15525 | -81.10940 | 36023 ft | 440 kts | 217° |
| 2026-05-07 02:06 | 32.10225 | -81.14475 | 36029 ft | 440 kts | 217° |
| 2026-05-07 02:06 | 32.04890 | -81.18036 | 36016 ft | 441 kts | 217° |
| 2026-05-07 02:07 | 31.99549 | -81.21595 | 35991 ft | 441 kts | 217° |
| 2026-05-07 02:07 | 31.94546 | -81.25611 | 35998 ft | 430 kts | 229° |
| 2026-05-07 02:07 | 31.92327 | -81.27975 | 35999 ft | 430 kts | 228° |
| 2026-05-07 02:08 | 31.87871 | -81.32696 | 36016 ft | 431 kts | 227° |
| 2026-05-07 02:08 | 31.83403 | -81.37403 | 36030 ft | 431 kts | 227° |
| 2026-05-07 02:09 | 31.79684 | -81.41314 | 36037 ft | 432 kts | 227° |
| 2026-05-07 02:09 | 31.75212 | -81.46023 | 36021 ft | 432 kts | 227° |
| 2026-05-07 02:10 | 31.70737 | -81.50735 | 36014 ft | 432 kts | 227° |
| 2026-05-07 02:10 | 31.66242 | -81.55450 | 36021 ft | 433 kts | 227° |
| 2026-05-07 02:11 | 31.61755 | -81.60159 | 36048 ft | 433 kts | 227° |
| 2026-05-07 02:11 | 31.57264 | -81.64862 | 36053 ft | 433 kts | 227° |
| 2026-05-07 02:12 | 31.52751 | -81.69563 | 36026 ft | 433 kts | 227° |
| 2026-05-07 02:12 | 31.48247 | -81.74260 | 36038 ft | 434 kts | 227° |
| 2026-05-07 02:13 | 31.43763 | -81.78939 | 36049 ft | 434 kts | 227° |
| 2026-05-07 02:13 | 31.38931 | -81.83245 | 36049 ft | 443 kts | 216° |
| 2026-05-07 02:14 | 31.33594 | -81.86864 | 36048 ft | 444 kts | 217° |
| 2026-05-07 02:14 | 31.28258 | -81.90487 | 36047 ft | 444 kts | 217° |
| 2026-05-07 02:15 | 31.22911 | -81.94116 | 36025 ft | 444 kts | 217° |
| 2026-05-07 02:15 | 31.17563 | -81.97744 | 36027 ft | 444 kts | 217° |
| 2026-05-07 02:16 | 31.12203 | -82.01370 | 36042 ft | 444 kts | 217° |
| 2026-05-07 02:16 | 31.06877 | -82.04957 | 36044 ft | 444 kts | 217° |
| 2026-05-07 02:17 | 31.01523 | -82.08566 | 36071 ft | 444 kts | 217° |
| 2026-05-07 02:17 | 30.96174 | -82.12181 | 36103 ft | 445 kts | 217° |
| 2026-05-07 02:18 | 30.90813 | -82.15787 | 36122 ft | 446 kts | 217° |
| 2026-05-07 02:18 | 30.85440 | -82.19396 | 36123 ft | 446 kts | 217° |
| 2026-05-07 02:19 | 30.80067 | -82.23008 | 36143 ft | 446 kts | 217° |
| 2026-05-07 02:19 | 30.74691 | -82.26612 | 36146 ft | 446 kts | 217° |
| 2026-05-07 02:20 | 30.69315 | -82.30169 | 36149 ft | 450 kts | 213° |
| 2026-05-07 02:20 | 30.66374 | -82.31523 | 36151 ft | 461 kts | 203° |
| 2026-05-07 02:20 | 30.63186 | -82.32237 | 36152 ft | 473 kts | 194° |
| 2026-05-07 02:21 | 30.56622 | -82.33034 | 36153 ft | 474 kts | 194° |
| 2026-05-07 02:21 | 30.50068 | -82.33848 | 36173 ft | 473 kts | 194° |
| 2026-05-07 02:22 | 30.43654 | -82.34642 | 36168 ft | 458 kts | 194° |
| 2026-05-07 02:22 | 30.37333 | -82.35428 | 36166 ft | 456 kts | 194° |
| 2026-05-07 02:23 | 30.31024 | -82.36221 | 36166 ft | 456 kts | 194° |
| 2026-05-07 02:23 | 30.24721 | -82.37015 | 36149 ft | 456 kts | 194° |
| 2026-05-07 02:24 | 30.19480 | -82.37668 | 36153 ft | 456 kts | 194° |
| 2026-05-07 02:24 | 30.12010 | -82.37664 | 36117 ft | 467 kts | 185° |
| 2026-05-07 02:25 | 30.05543 | -82.37295 | 36106 ft | 468 kts | 185° |
| 2026-05-07 02:25 | 29.99017 | -82.36942 | 35904 ft | 470 kts | 185° |
| 2026-05-07 02:26 | 29.95749 | -82.36766 | 35666 ft | 470 kts | 185° |
| 2026-05-07 02:26 | 29.92474 | -82.36584 | 35415 ft | 471 kts | 185° |
| 2026-05-07 02:26 | 29.89200 | -82.36399 | 35169 ft | 472 kts | 185° |
| 2026-05-07 02:26 | 29.85918 | -82.36214 | 34934 ft | 473 kts | 185° |
| 2026-05-07 02:27 | 29.82618 | -82.36030 | 34139 ft | 479 kts | 185° |
| 2026-05-07 02:27 | 29.79259 | -82.35852 | 33069 ft | 486 kts | 185° |
| 2026-05-07 02:27 | 29.75862 | -82.35671 | 32087 ft | 491 kts | 185° |
| 2026-05-07 02:27 | 29.72440 | -82.35482 | 31230 ft | 492 kts | 185° |
| 2026-05-07 02:28 | 29.69022 | -82.35295 | 30438 ft | 492 kts | 185° |
| 2026-05-07 02:28 | 29.65608 | -82.35114 | 29565 ft | 491 kts | 185° |
| 2026-05-07 02:28 | 29.62217 | -82.34922 | 29107 ft | 483 kts | 185° |
| 2026-05-07 02:28 | 29.58868 | -82.34719 | 28823 ft | 482 kts | 185° |
| 2026-05-07 02:29 | 29.55512 | -82.34520 | 28558 ft | 482 kts | 185° |
| 2026-05-07 02:29 | 29.52163 | -82.34332 | 28148 ft | 482 kts | 185° |
| 2026-05-07 02:29 | 29.48802 | -82.34149 | 27262 ft | 483 kts | 185° |
| 2026-05-07 02:29 | 29.45454 | -82.33969 | 26589 ft | 479 kts | 184° |
| 2026-05-07 02:30 | 29.42133 | -82.33788 | 25876 ft | 476 kts | 184° |
| 2026-05-07 02:30 | 29.38830 | -82.33580 | 25204 ft | 474 kts | 182° |
| 2026-05-07 02:30 | 29.35590 | -82.33271 | 24540 ft | 473 kts | 181° |
| 2026-05-07 02:30 | 29.32324 | -82.32875 | 23869 ft | 471 kts | 180° |
| 2026-05-07 02:31 | 29.29078 | -82.32438 | 23135 ft | 468 kts | 179° |
| 2026-05-07 02:31 | 29.25863 | -82.31994 | 22504 ft | 462 kts | 179° |
| 2026-05-07 02:31 | 29.22692 | -82.31567 | 21871 ft | 456 kts | 179° |
| 2026-05-07 02:31 | 29.19559 | -82.31170 | 21291 ft | 450 kts | 179° |
| 2026-05-07 02:32 | 29.16469 | -82.30802 | 20718 ft | 444 kts | 179° |
| 2026-05-07 02:32 | 29.13418 | -82.30447 | 20168 ft | 438 kts | 178° |
| 2026-05-07 02:32 | 29.10407 | -82.30098 | 19641 ft | 431 kts | 178° |
| 2026-05-07 02:32 | 29.07441 | -82.29753 | 19130 ft | 425 kts | 178° |
| 2026-05-07 02:33 | 29.04516 | -82.29408 | 18640 ft | 419 kts | 177° |
| 2026-05-07 02:33 | 29.01637 | -82.29066 | 18129 ft | 413 kts | 177° |
| 2026-05-07 02:33 | 28.98799 | -82.28729 | 17647 ft | 406 kts | 177° |
| 2026-05-07 02:33 | 28.96010 | -82.28398 | 17184 ft | 400 kts | 177° |
| 2026-05-07 02:34 | 28.93261 | -82.28074 | 16716 ft | 394 kts | 177° |
| 2026-05-07 02:34 | 28.90571 | -82.27759 | 16178 ft | 392 kts | 176° |
| 2026-05-07 02:34 | 28.87875 | -82.27442 | 15694 ft | 388 kts | 176° |
| 2026-05-07 02:34 | 28.85201 | -82.27124 | 15202 ft | 385 kts | 176° |
| 2026-05-07 02:35 | 28.82550 | -82.26811 | 14724 ft | 382 kts | 176° |
| 2026-05-07 02:35 | 28.79916 | -82.26502 | 14221 ft | 380 kts | 176° |
| 2026-05-07 02:35 | 28.77291 | -82.26193 | 13687 ft | 378 kts | 176° |
| 2026-05-07 02:35 | 28.74672 | -82.25885 | 13176 ft | 378 kts | 176° |
| 2026-05-07 02:36 | 28.72051 | -82.25774 | 12991 ft | 374 kts | 181° |
| 2026-05-07 02:36 | 28.70331 | -82.25750 | 13007 ft | 374 kts | 180° |
| 2026-05-07 02:36 | 28.66846 | -82.25700 | 13015 ft | 374 kts | 180° |
| 2026-05-07 02:36 | 28.64242 | -82.25658 | 13014 ft | 374 kts | 180° |
| 2026-05-07 02:37 | 28.61635 | -82.25613 | 13014 ft | 374 kts | 180° |
| 2026-05-07 02:37 | 28.59063 | -82.25561 | 13019 ft | 374 kts | 180° |
| 2026-05-07 02:37 | 28.56454 | -82.25504 | 13020 ft | 374 kts | 180° |
| 2026-05-07 02:37 | 28.53849 | -82.25449 | 13020 ft | 374 kts | 180° |
| 2026-05-07 02:38 | 28.51244 | -82.25398 | 13019 ft | 374 kts | 180° |
| 2026-05-07 02:38 | 28.48644 | -82.25358 | 13020 ft | 374 kts | 180° |
| 2026-05-07 02:38 | 28.46037 | -82.25327 | 13020 ft | 374 kts | 181° |
| 2026-05-07 02:38 | 28.43434 | -82.25299 | 13016 ft | 374 kts | 180° |
| 2026-05-07 02:39 | 28.40824 | -82.25269 | 13018 ft | 375 kts | 180° |
| 2026-05-07 02:39 | 28.38212 | -82.25308 | 13023 ft | 375 kts | 187° |
| 2026-05-07 02:39 | 28.35717 | -82.26099 | 13027 ft | 372 kts | 207° |
| 2026-05-07 02:39 | 28.33600 | -82.27725 | 13031 ft | 370 kts | 221° |
| 2026-05-07 02:40 | 28.31619 | -82.29618 | 13030 ft | 370 kts | 221° |
| 2026-05-07 02:40 | 28.29679 | -82.31479 | 13029 ft | 370 kts | 221° |
| 2026-05-07 02:40 | 28.27710 | -82.33368 | 12964 ft | 368 kts | 221° |
| 2026-05-07 02:40 | 28.25764 | -82.35229 | 12460 ft | 365 kts | 221° |
| 2026-05-07 02:41 | 28.23827 | -82.37075 | 11940 ft | 362 kts | 221° |
| 2026-05-07 02:41 | 28.21906 | -82.38904 | 11435 ft | 359 kts | 220° |
| 2026-05-07 02:41 | 28.19819 | -82.40417 | 11086 ft | 353 kts | 203° |
| 2026-05-07 02:41 | 28.17491 | -82.41050 | 11000 ft | 338 kts | 185° |
| 2026-05-07 02:42 | 28.15203 | -82.41128 | 11012 ft | 321 kts | 182° |
| 2026-05-07 02:42 | 28.13025 | -82.41185 | 11015 ft | 306 kts | 182° |
| 2026-05-07 02:42 | 28.10918 | -82.41236 | 10926 ft | 300 kts | 182° |
| 2026-05-07 02:42 | 28.08846 | -82.41283 | 10446 ft | 296 kts | 182° |
| 2026-05-07 02:43 | 28.06796 | -82.41333 | 9861 ft | 292 kts | 182° |
| 2026-05-07 02:43 | 28.04776 | -82.41382 | 9217 ft | 288 kts | 182° |
| 2026-05-07 02:43 | 28.02786 | -82.41428 | 8581 ft | 285 kts | 181° |
| 2026-05-07 02:43 | 28.00817 | -82.41477 | 7945 ft | 282 kts | 181° |
| 2026-05-07 02:44 | 27.98865 | -82.41526 | 7326 ft | 279 kts | 181° |
| 2026-05-07 02:44 | 27.96941 | -82.41573 | 6734 ft | 275 kts | 181° |
| 2026-05-07 02:44 | 27.95037 | -82.41615 | 6109 ft | 272 kts | 180° |
| 2026-05-07 02:44 | 27.93176 | -82.41653 | 5478 ft | 269 kts | 180° |
| 2026-05-07 02:45 | 27.91323 | -82.41693 | 5098 ft | 260 kts | 179° |
| 2026-05-07 02:45 | 27.89557 | -82.41738 | 4994 ft | 248 kts | 179° |
| 2026-05-07 02:45 | 27.87885 | -82.41782 | 4999 ft | 232 kts | 179° |
| 2026-05-07 02:46 | 27.84643 | -82.41863 | 5037 ft | 224 kts | 179° |
| 2026-05-07 02:46 | 27.83080 | -82.41900 | 5004 ft | 225 kts | 179° |
| 2026-05-07 02:46 | 27.81521 | -82.41934 | 4974 ft | 223 kts | 179° |
| 2026-05-07 02:46 | 27.79978 | -82.41985 | 4616 ft | 222 kts | 183° |
| 2026-05-07 02:47 | 27.78539 | -82.42601 | 4234 ft | 226 kts | 216° |
| 2026-05-07 02:47 | 27.77641 | -82.44040 | 4011 ft | 229 kts | 251° |
| 2026-05-07 02:47 | 27.77514 | -82.45766 | 4005 ft | 217 kts | 271° |
| 2026-05-07 02:47 | 27.77617 | -82.47421 | 3999 ft | 206 kts | 273° |
| 2026-05-07 02:48 | 27.77744 | -82.49020 | 3915 ft | 203 kts | 274° |
| 2026-05-07 02:48 | 27.77882 | -82.50605 | 3636 ft | 203 kts | 277° |
| 2026-05-07 02:48 | 27.78439 | -82.52046 | 3385 ft | 202 kts | 307° |
| 2026-05-07 02:48 | 27.79353 | -82.53256 | 3121 ft | 201 kts | 313° |
| 2026-05-07 02:49 | 27.80407 | -82.54222 | 2822 ft | 197 kts | 333° |
| 2026-05-07 02:49 | 27.81705 | -82.54687 | 2709 ft | 194 kts | 354° |
| 2026-05-07 02:49 | 27.83035 | -82.54687 | 2504 ft | 189 kts | 3° |
| 2026-05-07 02:49 | 27.84342 | -82.54643 | 2272 ft | 187 kts | 2° |
| 2026-05-07 02:50 | 27.85636 | -82.54599 | 2064 ft | 184 kts | 2° |
| 2026-05-07 02:50 | 27.86890 | -82.54556 | 1812 ft | 175 kts | 1° |
| 2026-05-07 02:50 | 27.87668 | -82.54530 | 1661 ft | 164 kts | 0° |
| 2026-05-07 02:50 | 27.88767 | -82.54493 | 1451 ft | 154 kts | 1° |
| 2026-05-07 02:51 | 27.89825 | -82.54457 | 1252 ft | 150 kts | 0° |
| 2026-05-07 02:51 | 27.90854 | -82.54418 | 1045 ft | 148 kts | 0° |
| 2026-05-07 02:51 | 27.91877 | -82.54380 | 849 ft | 145 kts | 0° |
| 2026-05-07 02:51 | 27.92862 | -82.54342 | 669 ft | 142 kts | 360° |
| 2026-05-07 02:52 | 27.93846 | -82.54318 | 510 ft | 140 kts | 360° |
| 2026-05-07 02:52 | 27.94816 | -82.54279 | 364 ft | 138 kts | 0° |
| 2026-05-07 02:52 | 27.95764 | -82.54250 | 166 ft | 137 kts | 0° |
| 2026-05-07 02:52 | 27.96713 | -82.54219 | 60 ft | 133 kts | 0° |
| 2026-05-07 02:53 | 27.97513 | -82.54195 | 48 ft | 92 kts | 1° |
| 2026-05-07 02:53 | 27.97970 | -82.54180 | 47 ft | 41 kts | 2° |
| 2026-05-07 02:53 | 27.98172 | -82.54172 | 49 ft | 20 kts | 6° |
| 2026-05-07 02:53 | 27.98268 | -82.54115 | 50 ft | 13 kts | 53° |
| 2026-05-07 02:54 | 27.98230 | -82.54048 | 48 ft | 13 kts | 168° |
| 2026-05-07 02:54 | 27.98144 | -82.54050 | 47 ft | 12 kts | 182° |
| 2026-05-07 02:54 | 27.98060 | -82.54052 | 47 ft | 12 kts | 172° |
| 2026-05-07 02:54 | 27.98034 | -82.54007 | 47 ft | 7 kts | 91° |
| 2026-05-07 02:55 | 27.98057 | -82.53971 | 47 ft | 4 kts | 31° |
| 2026-05-07 02:55 | 27.98067 | -82.53966 | 45 ft | 1 kts | 27° |
| 2026-05-07 02:55 | 27.98070 | -82.53964 | 46 ft | 0 kts | 31° |
| 2026-05-07 02:55 | 27.98071 | -82.53962 | 46 ft | 0 kts | 40° |
| 2026-05-07 02:56 | 27.98074 | -82.53956 | 47 ft | 3 kts | 58° |
| 2026-05-07 02:56 | 27.98079 | -82.53906 | 44 ft | 4 kts | 91° |
| 2026-05-07 02:56 | 27.98079 | -82.53886 | 44 ft | 1 kts | 91° |